Potters Bar, United Kingdom
Current Conditions -  °F | °C
As of 10:50 AM on Saturday 01 Nov 2014 (Local Time) from EGWU Reporting Station
Few Clouds Few Clouds  
Wind Chill: 61°   Ceiling: Unl
Heat Index: 61°   Visibility: 6mi
Dew Point: 50°   Wind: 9mph
Humidity: 68%   Direction: 250°WSW
Pressure: 30"   Gusts: NA
Location:  51.69°N, 0.18°W
Report Text: EGWU 011050Z 25008KT 9999 FEW018 16/10 Q1016 NOSIG
Loading
Personal Weather Stations






























Interactive Weather Map New forecast layout! Learn more

10-Day Weather Forecast

Advertisements
Track Severe Weather on mobile